Date,TemperatureHighF,TemperatureAvgF,TemperatureLowF,DewpointHighF,DewpointAvgF,DewpointLowF,HumidityHigh,HumidityAvg,HumidityLow,PressureMaxIn,PressureMinIn,WindSpeedMaxMPH,WindSpeedAvgMPH,GustSpeedMaxMPH,PrecipitationSumIn
2013-3-1,45.0,37.2,31.0,38.0,27.7,16.8,100,69,47,30.00,29.78,0,0,1,0.00
2013-3-2,36.0,32.9,29.0,32.5,28.1,26.6,100,83,69,30.18,30.00,0,0,0,0.00
2013-3-3,35.0,29.3,25.0,28.7,25.6,22.5,100,87,62,30.40,30.18,0,0,0,0.00
2013-3-4,38.0,29.7,24.0,25.2,22.7,20.7,96,76,54,30.62,30.40,0,0,2,0.10
2013-3-5,45.0,33.9,25.0,36.5,28.8,21.8,100,83,54,30.90,30.62,0,0,0,0.00
2013-3-6,39.0,34.9,31.0,37.0,33.9,29.9,100,96,78,30.89,30.78,0,0,1,0.04
2013-3-7,37.0,32.1,28.0,32.2,28.2,18.8,100,86,68,30.96,30.78,0,0,1,0.02
2013-3-8,36.0,29.9,27.0,34.0,19.5,9.8,100,66,43,31.12,30.92,0,0,0,0.36
2013-3-9,51.0,38.0,28.0,36.8,24.9,16.4,100,65,25,31.40,31.12,0,0,0,0.13
2013-3-10,37.0,32.3,24.0,37.0,30.6,18.0,100,94,58,31.50,31.40,0,0,0,0.00
2013-3-11,44.0,38.0,34.0,43.5,31.5,19.0,99,79,44,31.43,31.23,0,0,0,0.00
2013-3-12,46.0,43.2,39.0,39.5,19.4,-4.7,81,42,15,31.23,30.81,0,0,1,0.55
2013-3-13,47.0,38.8,33.0,35.5,28.9,-20.7,98,72,7,30.96,30.86,0,0,1,0.15
2013-3-14,34.0,28.6,25.0,31.0,19.1,11.3,100,69,45,31.04,30.92,0,0,1,0.09
2013-3-15,37.0,30.0,22.0,31.9,20.4,11.0,86,67,52,31.10,30.86,16,2,21,0.35
2013-3-16,36.0,30.7,26.0,30.8,22.2,11.0,100,74,37,31.07,30.89,18,5,20,0.35
2013-3-17,35.0,28.5,23.0,29.0,14.5,7.2,100,60,34,31.51,31.07,13,6,22,0.00
2013-3-18,31.0,25.6,18.0,30.0,13.9,3.3,100,62,40,32.70,31.35,23,7,26,0.00
2013-3-19,40.0,32.2,27.0,39.5,18.2,7.4,100,59,32,31.35,30.82,24,9,31,0.73
2013-3-20,38.0,31.9,25.0,31.2,23.3,16.1,100,72,47,31.10,30.96,23,8,26,0.02
2013-3-21,36.0,30.2,26.0,32.0,24.9,21.4,100,81,62,31.10,30.90,10,5,16,0.00
2013-3-22,38.0,30.0,21.0,25.9,18.2,12.7,84,62,43,31.20,30.96,17,8,21,0.00
2013-3-23,43.0,34.3,27.0,25.6,21.2,17.3,88,61,38,31.55,31.19,24,8,28,0.00
2013-3-24,45.0,33.8,26.0,35.6,26.3,18.4,100,76,43,31.73,31.55,11,5,18,0.00
2013-3-25,40.0,34.6,30.0,34.3,29.1,16.3,100,82,54,31.65,31.44,17,7,24,0.08
2013-3-26,44.0,36.5,30.0,35.6,28.2,21.0,95,74,46,32.00,31.61,12,4,16,0.00
2013-3-27,51.0,38.9,29.0,34.3,26.1,20.0,82,61,45,32.18,32.02,20,7,26,0.00
2013-3-28,45.0,39.0,33.0,37.3,32.6,27.3,90,78,61,32.43,32.17,10,4,14,0.03
2013-3-29,51.0,42.7,35.0,38.7,33.0,28.4,91,70,48,32.56,32.42,15,6,22,0.00
2013-3-30,51.0,42.3,34.0,35.7,31.3,28.4,88,66,45,32.67,32.52,16,6,24,0.00
2013-3-31,49.0,38.8,25.0,41.3,31.4,-24.8,90,80,5,32.70,32.23,13,4,24,0.20